createdAt,value
2018-09-15T00:02:04.173Z,16.10
2018-09-15T00:04:32.233Z,16.10
2018-09-15T00:07:00.305Z,16.10
2018-09-15T00:09:28.370Z,16.20
2018-09-15T00:11:56.436Z,16.20
2018-09-15T00:14:24.493Z,16.20
2018-09-15T00:16:52.556Z,16.20
2018-09-15T00:19:20.613Z,16.20
2018-09-15T00:21:48.673Z,16.20
2018-09-15T00:24:16.744Z,16.10
2018-09-15T00:26:44.813Z,16.10
2018-09-15T00:29:12.870Z,16.00
2018-09-15T00:31:40.930Z,16.00
2018-09-15T00:34:08.993Z,16.00
2018-09-15T00:36:37.065Z,15.90
2018-09-15T00:39:08.280Z,15.90
2018-09-15T00:41:36.327Z,15.90
2018-09-15T00:44:04.394Z,15.90
2018-09-15T00:46:32.444Z,15.80
2018-09-15T00:49:00.513Z,15.70
2018-09-15T00:51:28.571Z,15.60
2018-09-15T00:53:56.625Z,15.60
2018-09-15T00:56:24.690Z,15.50
2018-09-15T00:58:52.765Z,15.40
2018-09-15T01:01:20.808Z,15.30
2018-09-15T01:03:48.869Z,15.20
2018-09-15T01:06:16.919Z,15.00
2018-09-15T01:08:44.981Z,15.00
2018-09-15T01:11:13.029Z,15.00
2018-09-15T01:13:41.084Z,14.90
2018-09-15T01:16:09.138Z,14.80
2018-09-15T01:18:37.185Z,14.70
2018-09-15T01:21:05.249Z,14.70
2018-09-15T01:23:33.305Z,14.60
2018-09-15T01:26:01.413Z,14.50
2018-09-15T01:28:29.393Z,14.40
2018-09-15T01:30:57.461Z,14.40
2018-09-15T01:33:25.512Z,14.30
2018-09-15T01:35:53.568Z,14.20
2018-09-15T01:38:21.620Z,14.20
2018-09-15T01:40:49.681Z,14.10
2018-09-15T01:43:17.723Z,14.00
2018-09-15T01:45:45.772Z,14.00
2018-09-15T01:48:13.824Z,13.90
2018-09-15T01:50:41.905Z,13.90
2018-09-15T01:53:09.964Z,13.90
2018-09-15T01:55:38.022Z,13.80
2018-09-15T01:58:06.061Z,13.70
2018-09-15T02:00:34.116Z,13.60
2018-09-15T02:03:02.165Z,13.60
2018-09-15T02:05:30.264Z,13.50
2018-09-15T02:07:58.324Z,13.40
2018-09-15T02:10:33.035Z,13.40
2018-09-15T02:13:01.103Z,13.30
2018-09-15T02:15:29.167Z,13.20
2018-09-15T02:17:57.230Z,13.20
2018-09-15T02:20:25.295Z,13.10
2018-09-15T02:22:53.408Z,13.10
2018-09-15T02:25:21.422Z,13.00
2018-09-15T02:27:49.477Z,12.90
2018-09-15T02:30:17.542Z,12.90
2018-09-15T02:32:45.597Z,12.80
2018-09-15T02:35:13.656Z,12.80
2018-09-15T02:37:41.704Z,12.80
2018-09-15T02:40:09.764Z,12.70
2018-09-15T02:42:37.808Z,12.60
2018-09-15T02:45:05.860Z,12.60
2018-09-15T02:47:33.909Z,12.50
2018-09-15T02:50:01.979Z,12.50
2018-09-15T02:52:30.033Z,12.40
2018-09-15T02:54:58.077Z,12.40
2018-09-15T02:57:26.133Z,12.30
2018-09-15T02:59:54.195Z,12.20
2018-09-15T03:02:22.472Z,12.20
2018-09-15T03:04:50.516Z,12.10
2018-09-15T03:07:18.591Z,12.00
2018-09-15T03:09:46.665Z,12.00
2018-09-15T03:12:14.729Z,12.00
2018-09-15T03:14:42.788Z,12.00
2018-09-15T03:17:10.833Z,12.00
2018-09-15T03:19:38.884Z,12.10
2018-09-15T03:22:06.934Z,12.10
2018-09-15T03:24:34.984Z,12.10
2018-09-15T03:27:03.028Z,12.20
2018-09-15T03:29:31.156Z,12.20
2018-09-15T03:31:59.217Z,12.20
2018-09-15T03:34:27.269Z,12.10
2018-09-15T03:36:55.354Z,12.20
2018-09-15T03:39:23.401Z,12.20
2018-09-15T03:41:51.514Z,12.10
2018-09-15T03:44:19.513Z,12.20
2018-09-15T03:46:47.580Z,12.20
2018-09-15T03:49:15.628Z,12.30
2018-09-15T03:51:43.685Z,12.30
2018-09-15T03:54:16.956Z,12.40
2018-09-15T03:56:45.029Z,12.40
2018-09-15T03:59:13.108Z,12.40
2018-09-15T04:01:41.160Z,12.40
2018-09-15T04:04:09.213Z,12.40
2018-09-15T04:06:37.270Z,12.40
2018-09-15T04:09:07.216Z,12.40
2018-09-15T04:11:35.411Z,12.40
2018-09-15T04:14:03.474Z,12.40
2018-09-15T04:16:31.531Z,12.40
2018-09-15T04:18:59.587Z,12.40
2018-09-15T04:21:27.644Z,12.30
2018-09-15T04:23:55.688Z,12.20
2018-09-15T04:26:23.769Z,12.20
2018-09-15T04:28:51.828Z,12.10
2018-09-15T04:31:19.880Z,12.00
2018-09-15T04:33:47.953Z,11.90
2018-09-15T04:36:16.005Z,11.80
2018-09-15T04:38:44.064Z,11.80
2018-09-15T04:41:12.120Z,11.70
2018-09-15T04:43:40.188Z,11.70
2018-09-15T04:46:08.235Z,11.60
2018-09-15T04:48:36.292Z,11.60
2018-09-15T04:51:04.341Z,11.60
2018-09-15T04:53:32.405Z,11.60
2018-09-15T04:56:00.472Z,11.50
2018-09-15T04:58:28.529Z,11.50
2018-09-15T05:00:56.586Z,11.50
2018-09-15T05:03:24.636Z,11.50
2018-09-15T05:05:52.680Z,11.50
2018-09-15T05:08:20.737Z,11.50
2018-09-15T05:10:48.792Z,11.50
2018-09-15T05:13:16.857Z,11.40
2018-09-15T05:15:44.909Z,11.40
2018-09-15T05:18:12.957Z,11.30
2018-09-15T05:20:41.026Z,11.30
2018-09-15T05:23:09.081Z,11.30
2018-09-15T05:25:37.124Z,11.30
2018-09-15T05:28:05.352Z,11.30
2018-09-15T05:30:33.400Z,11.30
2018-09-15T05:33:01.466Z,11.30
2018-09-15T05:35:29.512Z,11.30
2018-09-15T05:37:58.473Z,11.30
2018-09-15T05:40:26.524Z,11.30
2018-09-15T05:42:54.580Z,11.20
2018-09-15T05:45:22.623Z,11.30
2018-09-15T05:47:50.696Z,11.30
2018-09-15T05:50:18.756Z,11.40
2018-09-15T05:52:46.813Z,11.50
2018-09-15T05:55:14.865Z,11.50
2018-09-15T05:57:42.927Z,11.60
2018-09-15T06:00:10.989Z,11.60
2018-09-15T06:02:39.054Z,11.80
2018-09-15T06:05:07.097Z,11.90
2018-09-15T06:07:35.152Z,12.10
2018-09-15T06:10:03.197Z,12.20
2018-09-15T06:12:31.243Z,12.20
2018-09-15T06:14:59.288Z,12.30
2018-09-15T06:17:27.358Z,12.50
2018-09-15T06:19:55.405Z,12.70
2018-09-15T06:22:23.461Z,13.10
2018-09-15T06:24:51.521Z,13.60
2018-09-15T06:27:19.621Z,14.00
2018-09-15T06:29:47.681Z,14.70
2018-09-15T06:32:15.732Z,15.80
2018-09-15T06:34:43.791Z,17.00
2018-09-15T06:37:11.836Z,18.10
2018-09-15T06:39:39.933Z,18.90
2018-09-15T06:42:08.002Z,19.50
2018-09-15T06:44:36.052Z,20.00
2018-09-15T06:47:04.109Z,20.20
2018-09-15T06:49:32.188Z,20.40
2018-09-15T06:52:00.249Z,20.50
2018-09-15T06:54:28.312Z,20.50
2018-09-15T06:56:56.369Z,20.60
2018-09-15T06:59:24.424Z,21.10
2018-09-15T07:01:52.544Z,21.90
2018-09-15T07:04:20.608Z,22.50
2018-09-15T07:06:48.667Z,23.10
2018-09-15T07:09:16.705Z,23.80
2018-09-15T07:11:44.769Z,24.40
2018-09-15T07:14:12.828Z,25.00
2018-09-15T07:16:40.892Z,25.50
2018-09-15T07:19:09.029Z,26.00
2018-09-15T07:21:37.108Z,26.40
2018-09-15T07:24:05.172Z,26.70
2018-09-15T07:26:33.221Z,26.50
2018-09-15T07:29:01.356Z,26.80
2018-09-15T07:31:29.464Z,27.10
2018-09-15T07:33:57.493Z,27.40
2018-09-15T07:36:25.547Z,27.90
2018-09-15T07:38:53.692Z,28.40
2018-09-15T07:41:21.753Z,28.90
2018-09-15T07:43:49.815Z,29.60
2018-09-15T07:46:17.864Z,30.00
2018-09-15T07:48:46.577Z,30.50
2018-09-15T07:51:14.649Z,30.60
2018-09-15T07:53:42.716Z,30.50
2018-09-15T07:56:10.767Z,30.30
2018-09-15T07:58:38.821Z,29.90
2018-09-15T08:01:06.882Z,30.00
2018-09-15T08:03:34.948Z,29.80
2018-09-15T08:06:03.008Z,30.50
2018-09-15T08:08:31.073Z,30.90
2018-09-15T08:10:59.169Z,30.80
2018-09-15T08:13:27.197Z,31.00
2018-09-15T08:15:55.278Z,29.70
2018-09-15T08:18:23.361Z,28.80
2018-09-15T08:20:51.550Z,28.10
2018-09-15T08:23:19.488Z,28.10
2018-09-15T08:25:47.551Z,29.50
2018-09-15T08:28:15.593Z,30.60
2018-09-15T08:30:43.640Z,31.60
2018-09-15T08:33:11.703Z,32.40
2018-09-15T08:35:39.785Z,33.90
2018-09-15T08:38:07.881Z,35.50
2018-09-15T08:40:35.900Z,37.10
2018-09-15T08:43:03.949Z,36.90
2018-09-15T08:45:32.696Z,37.10
2018-09-15T08:48:00.746Z,36.90
2018-09-15T08:50:28.812Z,35.50
2018-09-15T08:52:56.878Z,34.70
2018-09-15T08:55:25.377Z,35.20
2018-09-15T08:57:53.437Z,35.80
2018-09-15T09:00:21.520Z,36.00
2018-09-15T09:02:49.580Z,36.50
2018-09-15T09:05:17.652Z,37.30
2018-09-15T09:07:45.706Z,36.70
2018-09-15T09:10:13.828Z,36.20
2018-09-15T09:12:41.948Z,36.30
2018-09-15T09:15:10.019Z,36.60
2018-09-15T09:17:38.125Z,36.80
2018-09-15T09:20:06.201Z,37.00
2018-09-15T09:22:34.280Z,37.50
2018-09-15T09:25:02.346Z,37.50
2018-09-15T09:27:30.413Z,39.30
2018-09-15T09:29:58.473Z,40.00
2018-09-15T09:32:26.623Z,40.10
2018-09-15T09:34:54.656Z,41.10
2018-09-15T09:37:22.712Z,40.60
2018-09-15T09:39:50.766Z,40.50
2018-09-15T09:42:18.828Z,38.90
2018-09-15T09:44:46.876Z,38.60
2018-09-15T09:47:14.943Z,39.60
2018-09-15T09:49:42.985Z,38.80
2018-09-15T09:52:11.056Z,37.70
2018-09-15T09:54:39.109Z,37.70
2018-09-15T09:57:07.172Z,38.30
2018-09-15T09:59:35.229Z,38.90
2018-09-15T10:02:07.543Z,38.90
2018-09-15T10:04:35.620Z,38.70
2018-09-15T10:07:03.716Z,37.70
2018-09-15T10:09:31.745Z,37.50
2018-09-15T10:11:59.817Z,36.00
2018-09-15T10:14:27.886Z,35.70
2018-09-15T10:16:55.949Z,35.10
2018-09-15T10:19:24.026Z,33.50
2018-09-15T10:21:52.395Z,31.20
2018-09-15T10:24:20.493Z,29.90
2018-09-15T10:26:48.552Z,28.90
2018-09-15T10:29:16.607Z,27.80
2018-09-15T10:31:44.661Z,27.10
2018-09-15T10:34:12.724Z,26.70
2018-09-15T10:36:40.784Z,27.00
2018-09-15T10:39:10.233Z,27.70
2018-09-15T10:41:38.425Z,29.30
2018-09-15T10:44:06.568Z,30.90
2018-09-15T10:46:34.797Z,30.10
2018-09-15T10:49:02.873Z,29.50
2018-09-15T10:51:30.937Z,30.90
2018-09-15T10:53:59.149Z,33.40
2018-09-15T10:56:27.237Z,33.90
2018-09-15T10:58:55.698Z,33.80
2018-09-15T11:01:23.677Z,33.20
2018-09-15T11:03:51.727Z,32.30
2018-09-15T11:06:19.784Z,31.30
2018-09-15T11:08:47.832Z,30.10
2018-09-15T11:11:15.888Z,29.30
2018-09-15T11:13:44.033Z,30.50
2018-09-15T11:16:12.028Z,32.80
2018-09-15T11:18:40.089Z,34.80
2018-09-15T11:21:08.153Z,36.90
2018-09-15T11:23:36.225Z,38.30
2018-09-15T11:26:04.284Z,38.40
2018-09-15T11:28:32.369Z,38.70
2018-09-15T11:31:00.452Z,39.40
2018-09-15T11:33:28.517Z,40.30
2018-09-15T11:35:56.573Z,40.80
2018-09-15T11:38:24.664Z,39.30
2018-09-15T11:40:52.725Z,37.40
2018-09-15T11:43:20.788Z,35.20
2018-09-15T11:45:48.844Z,33.40
2018-09-15T11:48:16.914Z,32.50
2018-09-15T11:50:44.990Z,32.60
2018-09-15T11:53:13.056Z,33.50
2018-09-15T11:55:41.141Z,34.10
2018-09-15T11:58:09.213Z,34.50
2018-09-15T12:00:39.475Z,35.30
2018-09-15T12:03:07.648Z,35.20
2018-09-15T12:05:35.708Z,33.80
2018-09-15T12:08:03.773Z,32.10
2018-09-15T12:10:31.823Z,30.60
2018-09-15T12:12:59.911Z,29.90
2018-09-15T12:15:27.984Z,29.20
2018-09-15T12:17:56.040Z,28.70
2018-09-15T12:20:24.104Z,28.40
2018-09-15T12:22:52.181Z,28.00
2018-09-15T12:25:20.241Z,27.80
2018-09-15T12:27:48.427Z,27.60
2018-09-15T12:30:16.465Z,27.30
2018-09-15T12:32:44.553Z,27.30
2018-09-15T12:35:12.608Z,27.10
2018-09-15T12:37:40.673Z,27.10
2018-09-15T12:40:08.719Z,27.10
2018-09-15T12:42:36.884Z,27.00
2018-09-15T12:45:05.004Z,27.00
2018-09-15T12:47:33.032Z,27.00
2018-09-15T12:50:01.077Z,27.10
2018-09-15T12:52:29.132Z,27.20
2018-09-15T12:54:57.177Z,27.40
2018-09-15T12:57:25.234Z,27.90
2018-09-15T12:59:53.288Z,28.60
2018-09-15T13:02:23.116Z,29.40
2018-09-15T13:04:51.211Z,30.10
2018-09-15T13:07:19.289Z,30.60
2018-09-15T13:09:47.352Z,30.80
2018-09-15T13:12:15.486Z,30.80
2018-09-15T13:14:43.472Z,30.70
2018-09-15T13:17:11.592Z,30.80
2018-09-15T13:19:39.628Z,31.00
2018-09-15T13:22:07.677Z,31.20
2018-09-15T13:24:35.746Z,31.10
2018-09-15T13:27:03.796Z,30.90
2018-09-15T13:29:31.921Z,30.70
2018-09-15T13:31:59.962Z,30.60
2018-09-15T13:34:28.016Z,30.50
2018-09-15T13:36:56.267Z,30.40
2018-09-15T13:39:24.285Z,29.90
2018-09-15T13:41:52.349Z,29.20
2018-09-15T13:44:20.399Z,29.00
2018-09-15T13:46:48.533Z,29.00
2018-09-15T13:49:16.526Z,28.90
2018-09-15T13:51:44.596Z,28.80
2018-09-15T13:54:12.652Z,28.80
2018-09-15T13:56:40.709Z,28.80
2018-09-15T13:59:08.759Z,28.80
2018-09-15T14:01:36.812Z,28.50
2018-09-15T14:04:04.873Z,28.60
2018-09-15T14:06:32.939Z,28.10
2018-09-15T14:09:00.986Z,27.80
2018-09-15T14:11:29.044Z,27.60
2018-09-15T14:13:57.125Z,27.70
2018-09-15T14:16:25.255Z,27.70
2018-09-15T14:18:53.261Z,27.70
2018-09-15T14:21:21.313Z,27.60
2018-09-15T14:23:49.380Z,27.50
2018-09-15T14:26:17.432Z,27.60
2018-09-15T14:28:45.749Z,27.80
2018-09-15T14:31:13.795Z,27.80
2018-09-15T14:33:41.856Z,27.80
2018-09-15T14:36:09.921Z,27.80
2018-09-15T14:38:38.026Z,27.60
2018-09-15T14:41:06.057Z,27.60
2018-09-15T14:43:34.177Z,27.70
2018-09-15T14:46:02.252Z,27.90
2018-09-15T14:48:30.380Z,28.20
2018-09-15T14:50:58.366Z,28.40
2018-09-15T14:53:26.452Z,28.60
2018-09-15T14:55:54.549Z,28.50
2018-09-15T14:58:22.603Z,28.40
2018-09-15T15:00:50.755Z,28.40
2018-09-15T15:03:18.751Z,28.30
2018-09-15T15:05:46.816Z,28.20
2018-09-15T15:08:14.860Z,28.20
2018-09-15T15:10:42.960Z,28.20
2018-09-15T15:13:11.025Z,28.10
2018-09-15T15:15:39.108Z,27.90
2018-09-15T15:18:07.153Z,27.60
2018-09-15T15:20:35.217Z,27.20
2018-09-15T15:23:03.267Z,26.90
2018-09-15T15:25:31.342Z,26.70
2018-09-15T15:27:59.388Z,26.60
2018-09-15T15:30:27.440Z,26.40
2018-09-15T15:32:55.494Z,26.20
2018-09-15T15:35:23.610Z,26.10
2018-09-15T15:37:51.613Z,25.80
2018-09-15T15:40:19.676Z,25.60
2018-09-15T15:42:47.805Z,25.40
2018-09-15T15:45:15.885Z,25.20
2018-09-15T15:47:43.957Z,25.00
2018-09-15T15:50:12.117Z,24.90
2018-09-15T15:52:40.185Z,24.80
2018-09-15T15:55:08.242Z,24.60
2018-09-15T15:57:36.307Z,24.50
2018-09-15T16:00:05.058Z,24.40
2018-09-15T16:02:33.189Z,24.20
2018-09-15T16:05:01.253Z,24.10
2018-09-15T16:07:29.305Z,24.00
2018-09-15T16:09:57.361Z,23.90
2018-09-15T16:12:25.412Z,23.80
2018-09-15T16:14:53.477Z,23.70
2018-09-15T16:17:21.532Z,23.70
2018-09-15T16:19:49.623Z,23.60
2018-09-15T16:22:17.632Z,23.50
2018-09-15T16:24:45.693Z,23.50
2018-09-15T16:27:13.757Z,23.40
2018-09-15T16:29:41.833Z,23.40
2018-09-15T16:32:09.888Z,23.30
2018-09-15T16:34:37.942Z,23.30
2018-09-15T16:37:06.089Z,23.30
2018-09-15T16:39:34.154Z,23.30
2018-09-15T16:42:02.220Z,23.20
2018-09-15T16:44:30.268Z,23.10
2018-09-15T16:46:58.332Z,23.10
2018-09-15T16:49:26.381Z,23.10
2018-09-15T16:51:54.447Z,23.10
2018-09-15T16:54:22.496Z,23.00
2018-09-15T16:56:50.553Z,22.90
2018-09-15T16:59:18.599Z,22.70
2018-09-15T17:01:46.655Z,22.60
2018-09-15T17:04:14.705Z,22.50
2018-09-15T17:06:42.775Z,22.30
2018-09-15T17:09:11.725Z,22.20
2018-09-15T17:11:39.785Z,22.10
2018-09-15T17:14:07.861Z,22.00
2018-09-15T17:16:35.990Z,21.80
2018-09-15T17:19:04.260Z,21.70
2018-09-15T17:21:32.460Z,21.60
2018-09-15T17:24:00.499Z,21.50
2018-09-15T17:26:28.560Z,21.40
2018-09-15T17:28:56.609Z,21.30
2018-09-15T17:31:24.811Z,21.20
2018-09-15T17:33:52.752Z,21.00
2018-09-15T17:36:20.836Z,20.90
2018-09-15T17:38:48.885Z,20.80
2018-09-15T17:41:16.990Z,20.60
2018-09-15T17:43:45.057Z,20.50
2018-09-15T17:46:13.105Z,20.30
2018-09-15T17:48:41.157Z,20.20
2018-09-15T17:51:09.217Z,20.00
2018-09-15T17:53:37.265Z,19.90
2018-09-15T17:56:05.329Z,19.70
2018-09-15T17:58:33.372Z,19.50
2018-09-15T18:01:01.433Z,19.40
2018-09-15T18:03:29.503Z,19.30
2018-09-15T18:05:57.532Z,19.10
2018-09-15T18:08:25.576Z,19.00
2018-09-15T18:10:53.649Z,18.90
2018-09-15T18:13:21.706Z,18.80
2018-09-15T18:15:49.797Z,18.70
2018-09-15T18:18:17.844Z,18.50
2018-09-15T18:20:45.968Z,18.40
2018-09-15T18:23:14.009Z,18.40
2018-09-15T18:25:42.111Z,18.30
2018-09-15T18:28:10.201Z,18.20
2018-09-15T18:30:38.237Z,18.10
2018-09-15T18:33:06.067Z,18.00
2018-09-15T18:35:34.124Z,17.90
2018-09-15T18:38:02.188Z,17.80
2018-09-15T18:40:30.240Z,17.70
2018-09-15T18:42:58.350Z,17.70
2018-09-15T18:45:26.356Z,17.60
2018-09-15T18:47:54.408Z,17.40
2018-09-15T18:50:22.461Z,17.40
2018-09-15T18:52:50.508Z,17.30
2018-09-15T18:55:18.552Z,17.20
2018-09-15T18:57:46.617Z,17.20
2018-09-15T19:00:14.735Z,17.10
2018-09-15T19:02:42.726Z,17.00
2018-09-15T19:05:10.793Z,17.00
2018-09-15T19:07:39.078Z,16.90
2018-09-15T19:10:07.147Z,16.80
2018-09-15T19:12:35.208Z,16.70
2018-09-15T19:15:03.266Z,16.70
2018-09-15T19:17:31.319Z,16.60
2018-09-15T19:19:59.358Z,16.60
2018-09-15T19:22:27.436Z,16.50
2018-09-15T19:24:55.497Z,16.50
2018-09-15T19:27:23.548Z,16.40
2018-09-15T19:29:51.597Z,16.40
2018-09-15T19:32:19.669Z,16.30
2018-09-15T19:34:47.717Z,16.30
2018-09-15T19:37:15.780Z,16.20
2018-09-15T19:39:43.833Z,16.20
2018-09-15T19:42:11.909Z,16.10
2018-09-15T19:44:39.960Z,16.10
2018-09-15T19:47:08.016Z,16.00
2018-09-15T19:49:36.069Z,16.00
2018-09-15T19:52:10.981Z,16.00
2018-09-15T19:54:39.025Z,15.90
2018-09-15T19:57:07.079Z,15.80
2018-09-15T19:59:35.124Z,15.80
2018-09-15T20:02:03.192Z,15.70
2018-09-15T20:04:31.248Z,15.70
2018-09-15T20:06:59.325Z,15.70
2018-09-15T20:09:27.372Z,15.70
2018-09-15T20:11:55.429Z,15.60
2018-09-15T20:14:23.560Z,15.60
2018-09-15T20:16:50.875Z,15.50
2018-09-15T20:19:18.029Z,15.50
2018-09-15T20:21:45.164Z,15.40
2018-09-15T20:24:13.213Z,15.40
2018-09-15T20:26:41.260Z,15.30
2018-09-15T20:29:09.316Z,15.20
2018-09-15T20:31:37.445Z,15.20
2018-09-15T20:34:05.489Z,15.10
2018-09-15T20:36:33.561Z,15.00
2018-09-15T20:39:01.616Z,14.90
2018-09-15T20:41:29.665Z,14.90
2018-09-15T20:43:57.756Z,14.90
2018-09-15T20:46:25.764Z,14.80
2018-09-15T20:48:53.832Z,14.80
2018-09-15T20:51:21.864Z,14.80
2018-09-15T20:53:49.917Z,14.70
2018-09-15T20:56:17.974Z,14.70
2018-09-15T20:58:46.029Z,14.70
2018-09-15T21:01:14.077Z,14.60
2018-09-15T21:03:42.148Z,14.60
2018-09-15T21:06:10.192Z,14.50
2018-09-15T21:08:38.248Z,14.40
2018-09-15T21:11:06.371Z,14.40
2018-09-15T21:13:34.439Z,14.30
2018-09-15T21:16:02.528Z,14.20
2018-09-15T21:18:30.551Z,14.20
2018-09-15T21:20:58.617Z,14.10
2018-09-15T21:23:26.668Z,14.10
2018-09-15T21:25:54.725Z,14.10
2018-09-15T21:28:22.781Z,14.00
2018-09-15T21:30:51.022Z,14.00
2018-09-15T21:33:19.223Z,14.00
2018-09-15T21:35:47.264Z,14.00
2018-09-15T21:38:15.317Z,13.90
2018-09-15T21:40:43.496Z,13.80
2018-09-15T21:43:11.690Z,13.80
2018-09-15T21:45:39.732Z,13.80
2018-09-15T21:48:08.097Z,13.70
2018-09-15T21:50:36.141Z,13.70
2018-09-15T21:53:04.207Z,13.60
2018-09-15T21:55:32.306Z,13.50
2018-09-15T21:58:00.362Z,13.50
2018-09-15T22:00:28.421Z,13.50
2018-09-15T22:02:56.482Z,13.50
2018-09-15T22:05:24.536Z,13.40
2018-09-15T22:07:52.593Z,13.40
2018-09-15T22:10:20.657Z,13.40
2018-09-15T22:12:48.735Z,13.30
2018-09-15T22:15:24.581Z,13.30
2018-09-15T22:17:53.173Z,13.30
2018-09-15T22:20:21.220Z,13.30
2018-09-15T22:22:49.301Z,13.30
2018-09-15T22:25:17.442Z,13.30
2018-09-15T22:27:45.479Z,13.30
2018-09-15T22:30:13.541Z,13.20
2018-09-15T22:32:41.588Z,13.20
2018-09-15T22:35:09.653Z,13.20
2018-09-15T22:37:37.701Z,13.20
2018-09-15T22:40:05.767Z,13.20
2018-09-15T22:42:33.820Z,13.10
2018-09-15T22:45:01.873Z,13.10
2018-09-15T22:47:29.921Z,13.10
2018-09-15T22:49:57.979Z,13.10
2018-09-15T22:52:26.029Z,13.10
2018-09-15T22:54:54.094Z,13.10
2018-09-15T22:57:22.145Z,13.00
2018-09-15T22:59:50.201Z,13.00
2018-09-15T23:02:18.291Z,13.00
2018-09-15T23:04:46.345Z,12.90
2018-09-15T23:07:14.383Z,12.90
2018-09-15T23:09:42.441Z,12.90
2018-09-15T23:12:10.492Z,12.90
2018-09-15T23:14:38.551Z,12.80
2018-09-15T23:17:06.590Z,12.80
2018-09-15T23:19:34.640Z,12.80
2018-09-15T23:22:02.693Z,12.80
2018-09-15T23:24:30.758Z,12.80
2018-09-15T23:26:58.799Z,12.70
2018-09-15T23:29:26.880Z,12.70
2018-09-15T23:31:54.916Z,12.70
2018-09-15T23:34:22.981Z,12.70
2018-09-15T23:36:51.028Z,12.70
2018-09-15T23:39:19.076Z,12.60
2018-09-15T23:41:47.131Z,12.60
2018-09-15T23:44:15.185Z,12.60
2018-09-15T23:46:43.240Z,12.60
2018-09-15T23:49:11.308Z,12.60
2018-09-15T23:51:39.358Z,12.60
2018-09-15T23:54:07.407Z,12.60
2018-09-15T23:56:35.465Z,12.60
2018-09-15T23:59:03.517Z,12.60
